• Join FlightAware (Why Join?)
  • Login
  • US Flag 
 
02:47PM EST


 

Airport Tracker/Info


-or-


 

Live Flight TrackerFlight Track Log ✈ N1926A ✈ 04-Sep-2013 ✈ 41A - KPWK

Flight Track Log - Related Links

Times and Time Zones

All times are in EDT time to prevent confusion due to time zone crossing. See the N1926A flight status page for this flight to view local times or setup timezone preferences in your user account.

Time Position Orientation Groundspeed Altitude Reporting Facility
EDT Latitude Longitude Course Direction KTS MPH feet Rate Location/Type
11:33AM 32.5800 -85.9025 351° North 164 189 3,500  Level Atlanta Center
11:34AM 32.6236 -85.9108 351° North 177 204 5,400 1,800 Climbing Atlanta Center
11:35AM 32.6717 -85.9192 352° North 177 204 7,200 1,500 Climbing Atlanta Center
11:36AM 32.7258 -85.9278 352° North 184 212 8,500 1,260 Climbing Atlanta Center
11:37AM 32.7861 -85.9389 351° North 196 226 9,800 960 Climbing Atlanta Center
11:38AM 32.8506 -85.9553 348° North 219 252 10,500 1,020 Climbing Atlanta Center
11:39AM 32.9131 -85.9664 352° North 226 260 11,900 1,260 Climbing Atlanta Center
11:40AM 32.9753 -85.9800 350° North 231 266 13,100 1,140 Climbing Atlanta Center
11:41AM 33.0400 -85.9914 352° North 231 266 14,200 1,020 Climbing Atlanta Center
11:42AM 33.1022 -86.0028 351° North 231 266 15,200 960 Climbing Atlanta Center
11:43AM 33.1647 -86.0117 353° North 231 266 16,200 900 Climbing Atlanta Center
11:44AM 33.2292 -86.0256 350° North 231 266 17,000 780 Climbing Atlanta Center
11:45AM 33.2958 -86.0344 354° North 231 266 17,800 660 Climbing Atlanta Center
11:46AM 33.3583 -86.0483 349° North 236 272 18,400 600 Climbing Atlanta Center
11:47AM 33.4228 -86.0597 352° North 236 272 19,100 720 Climbing Atlanta Center
11:48AM 33.4853 -86.0736 350° North 236 272 19,900 780 Climbing Atlanta Center
11:49AM 33.5478 -86.0828 353° North 231 266 20,700 660 Climbing Atlanta Center
11:50AM 33.6017 -86.0964 348° North 226 260 21,300 600 Climbing Atlanta Center
11:51AM 33.6664 -86.1081 351° North 226 260 22,000 840 Climbing Atlanta Center
11:52AM 33.7267 -86.1194 351° North 220 253 23,000 900 Climbing Atlanta Center
11:53AM 33.7889 -86.1308 351° North 220 253 23,800 780 Climbing Atlanta Center
11:54AM 33.8450 -86.1447 348° North 220 253 24,600 780 Climbing Atlanta Center
11:55AM 33.9056 -86.1539 353° North 220 253 25,400 660 Climbing Atlanta Center
11:56AM 33.9658 -86.1653 351° North 220 253 26,000 300 Climbing Atlanta Center
11:57AM 34.0283 -86.1769 351° North 220 253 26,000  Level Atlanta Center
11:58AM 34.0947 -86.1886 352° North 225 259 26,000  Level Atlanta Center
11:59AM 34.1636 -86.2003 352° North 235 270 26,000  Level Atlanta Center
12:00PM 34.2342 -86.2122 352° North 242 278 26,000  Level Atlanta Center
12:01PM 34.3028 -86.2264 350° North 242 278 26,000  Level Atlanta Center
12:02PM 34.3714 -86.2408 350° North 242 278 26,000  Level Atlanta Center
12:03PM 34.4400 -86.2553 350° North 242 278 26,000  Level Atlanta Center
12:04PM 34.5086 -86.2697 350° North 242 278 26,000  Level Atlanta Center
12:05PM 34.5772 -86.2842 350° North 242 278 26,000  Level Atlanta Center
12:06PM 34.6481 -86.2961 352° North 242 278 26,000  Level Atlanta Center
12:07PM 34.7147 -86.3081 352° North 242 278 26,000  Level Atlanta Center
12:08PM 34.7853 -86.3225 350° North 247 284 26,000  Level Atlanta Center
12:09PM 34.8561 -86.3344 352° North 247 284 26,000  Level Atlanta Center
12:10PM 34.9225 -86.3492 350° North 247 284 26,000  Level Atlanta Center
12:11PM 34.9911 -86.3611 352° North 247 284 26,000  Level Atlanta Center
12:12PM 35.0619 -86.3758 350° North 252 290 26,000  Level Atlanta Center
12:13PM 35.1717 -86.4019 349° North 266 306 26,000  Level Memphis Center
12:14PM 35.2431 -86.4189 349° North 260 299 26,000  Level Memphis Center
12:15PM 35.3122 -86.4308 352° North 254 292 26,000  Level Memphis Center
12:16PM 35.3856 -86.4428 352° North 254 292 26,000  Level Memphis Center
12:17PM 35.4569 -86.4547 352° North 254 292 26,000  Level Memphis Center
12:18PM 35.5242 -86.4694 350° North 254 292 26,000  Level Memphis Center
12:19PM 35.5933 -86.4839 350° North 254 292 26,000  Level Memphis Center
12:20PM 35.6625 -86.4961 352° North 254 292 26,000  Level Memphis Center
12:21PM 35.7319 -86.5108 350° North 248 285 26,000  Level Memphis Center
12:22PM 35.8011 -86.5256 350° North 248 285 26,000  Level Memphis Center
12:23PM 35.8703 -86.5375 352° North 248 285 26,000  Level Memphis Center
12:24PM 35.9375 -86.5525 350° North 248 285 26,000  Level Memphis Center
12:25PM 36.0067 -86.5672 350° North 243 280 26,000  Level Memphis Center
12:26PM 36.0697 -86.5797 351° North 243 280 26,000  Level Memphis Center
12:27PM 36.1347 -86.5919 351° North 238 274 26,000  Level Memphis Center
12:28PM 36.2039 -86.6042 352° North 238 274 26,000  Level Memphis Center
12:29PM 36.2731 -86.6167 352° North 238 274 26,000  Level Memphis Center
12:30PM 36.3403 -86.6289 352° North 238 274 26,000  Level Memphis Center
12:31PM 36.4094 -86.6439 350° North 238 274 26,000  Level Memphis Center
12:32PM 36.4786 -86.6586 350° North 238 274 26,000  Level Memphis Center
12:33PM 36.5478 -86.6736 350° North 238 274 26,000  Level Memphis Center
12:34PM 36.6150 -86.6861 352° North 238 274 26,000  Level Memphis Center
12:35PM 36.6819 -86.7011 350° North 238 274 26,000  Level Memphis Center
12:36PM 36.7472 -86.7161 350° North 238 274 26,000  Level Memphis Center
12:37PM 36.8164 -86.7314 350° North 238 274 26,000  Level Memphis Center
12:39PM 36.9106 -86.7483 352° North 251 289 26,000  Level Indianapolis Center
12:40PM 36.9800 -86.7628 351° North 251 289 26,000  Level Indianapolis Center
12:41PM 37.0497 -86.7764 351° North 251 289 26,000  Level Indianapolis Center
12:42PM 37.1189 -86.7917 350° North 252 290 26,000  Level Indianapolis Center
12:43PM 37.1883 -86.8056 351° North 251 289 26,000  Level Indianapolis Center
12:44PM 37.2581 -86.8186 352° North 252 290 26,000  Level Indianapolis Center
12:45PM 37.3275 -86.8331 351° North 252 290 26,000  Level Indianapolis Center
12:46PM 37.3964 -86.8483 350° North 251 289 26,000  Level Indianapolis Center
12:47PM 37.4656 -86.8614 351° North 250 288 26,000  Level Indianapolis Center
12:48PM 37.5342 -86.8750 351° North 250 288 26,000  Level Indianapolis Center
12:49PM 37.6133 -86.8939 349° North 248 285 26,000  Level Indianapolis Center
12:50PM 37.6806 -86.9083 350° North 246 283 26,000  Level Indianapolis Center
12:51PM 37.7483 -86.9222 351° North 245 282 26,000  Level Indianapolis Center
12:52PM 37.8169 -86.9356 351° North 249 287 26,000  Level Indianapolis Center
12:53PM 37.8853 -86.9386 358° North 247 284 26,000  Level Indianapolis Center
12:54PM 37.9533 -86.9428 357° North 245 282 26,000  Level Indianapolis Center
12:55PM 38.0217 -86.9458 358° North 245 282 26,000  Level Indianapolis Center
12:56PM 38.0897 -86.9475 359° North 245 282 26,000  Level Indianapolis Center
12:57PM 38.1711 -86.9503 358° North 245 282 26,000  Level Indianapolis Center
12:58PM 38.2378 -86.9514 359° North 241 277 26,000  Level Indianapolis Center
12:59PM 38.3047 -86.9525 359° North 244 281 26,000  Level Indianapolis Center
01:00PM 38.3717 -86.9581 356° North 244 281 26,000  Level Indianapolis Center
01:01PM 38.4372 -86.9617 358° North 238 274 26,000  Level Indianapolis Center
01:02PM 38.5036 -86.9644 358° North 239 275 26,000  Level Indianapolis Center
01:03PM 38.5822 -86.9692 357° North 237 273 26,000  Level Indianapolis Center
01:04PM 38.6486 -86.9722 358° North 238 274 26,000  Level Indianapolis Center
01:05PM 38.7150 -86.9756 358° North 239 275 26,000  Level Indianapolis Center
01:06PM 38.7811 -86.9792 358° North 237 273 26,000  Level Indianapolis Center
01:07PM 38.8483 -86.9817 358° North 240 276 26,000  Level Indianapolis Center
01:09PM 38.9150 -86.9844 358° North 240 276 26,000  Level Indianapolis Center
01:10PM 38.9806 -86.9889 357° North 237 273 26,000  Level Indianapolis Center
01:11PM 39.0464 -86.9914 358° North 237 273 26,000  Level Indianapolis Center
01:12PM 39.1125 -86.9961 357° North 235 270 26,000  Level Indianapolis Center
01:13PM 39.1872 -86.9992 358° North 236 272 26,000  Level Indianapolis Center
01:14PM 39.2528 -87.0019 358° North 236 272 26,000  Level Indianapolis Center
01:15PM 39.3192 -87.0044 358° North 238 274 26,000  Level Indianapolis Center
01:16PM 39.3861 -87.0075 358° North 239 275 26,000  Level Indianapolis Center
01:17PM 39.4528 -87.0100 358° North 240 276 26,000  Level Indianapolis Center
01:18PM 39.5319 -87.0144 358° North 238 274 26,000  Level Indianapolis Center
01:19PM 39.5992 -87.0172 358° North 240 276 26,000  Level Indianapolis Center
01:20PM 39.6656 -87.0217 357° North 239 275 26,000  Level Indianapolis Center
01:21PM 39.7325 -87.0258 357° North 239 275 26,000  Level Indianapolis Center
01:22PM 39.7989 -87.0308 357° North 238 274 26,000  Level Indianapolis Center
01:23PM 39.8656 -87.0336 358° North 238 274 26,000 -240 Level Indianapolis Center
01:24PM 39.9319 -87.0372 358° North 238 274 25,600 -540 Descending Indianapolis Center
01:25PM 40.0044 -87.0422 357° North 256 295 24,900 -840 Descending Indianapolis Center
01:26PM 40.0900 -87.0464 358° North 256 295 23,900 -1,320 Descending Indianapolis Center
01:27PM 40.1669 -87.0497 358° North 274 315 22,300 -1,380 Descending Indianapolis Center
01:28PM 40.2003 -87.0528 356° North 281 323 21,800 -1,200 Descending Chicago Center
01:29PM 40.2747 -87.0808 344° North 284 327 20,500 -1,260 Descending Chicago Center
01:30PM 40.3622 -87.1142 344° North 275 316 19,200 -1,260 Descending Chicago Center
01:31PM 40.4350 -87.1417 344° North 272 313 18,000 -1,020 Descending Chicago Center
01:32PM 40.5086 -87.1700 344° North 272 313 17,100 -960 Descending Chicago Center
01:33PM 40.5806 -87.1969 344° North 272 313 16,100 -960 Descending Chicago Center
01:34PM 40.6514 -87.2222 345° North 268 308 15,200 -1,320 Descending Chicago Center
01:35PM 40.7389 -87.2525 345° North 269 310 13,400 -1,620 Descending Chicago Center
01:36PM 40.8144 -87.2725 349° North 273 314 11,900 -1,200 Descending Chicago Center
01:37PM 40.8883 -87.2975 346° North 275 316 11,000 -540 Descending Chicago Center
01:38PM 40.9531 -87.3219 344° North 258 297 10,900 -660 Descending Chicago Center
01:39PM 41.0175 -87.3467 344° North 245 282 9,700 -1,500 Descending Chicago Center
01:40PM 41.1039 -87.3783 345° North 265 305 7,800 -1,740 Descending Chicago Center
01:41PM 41.1781 -87.4011 347° North 272 313 6,200 -1,320 Descending Chicago Center
01:42PM 41.2506 -87.4269 345° North 273 314 5,100 -1,080 Descending Chicago Center
01:43PM 41.3181 -87.3947 20° North 273 314 4,000 -540 Descending Chicago Center
01:44PM 41.3814 -87.3597 23° Northeast 260 299 4,000  Level Chicago Center
01:45PM 41.4556 -87.3242 20° North 247 284 4,000 -540 Level Chicago Center
01:46PM 41.5239 -87.3283 357° North 251 289 3,000 -540 Descending Chicago Center
01:47PM 41.5908 -87.3294 359° North 248 285 3,000  Level Chicago Center
01:48PM 41.6550 -87.3300 360° North 242 278 3,000  Level Chicago Center
01:49PM 41.7183 -87.3311 359° North 235 270 3,000  Level Chicago Center
01:50PM 41.7936 -87.3481 350° North 231 266 3,000  Level Chicago Center
01:51PM 41.8567 -87.3633 350° North 231 266 3,000  Level Chicago Center
01:52PM 41.9200 -87.3764 351° North 231 266 3,000  Level Chicago Center
01:53PM 41.9781 -87.4044 340° North 231 266 3,000  Level Chicago Center
01:54PM 42.0300 -87.4450 330° Northwest 221 254 3,000  Level Chicago Center
01:55PM 42.0958 -87.4942 331° Northwest 225 259 3,000  Level Chicago Center
01:56PM 42.1517 -87.5369 330° Northwest 228 262 3,000  Level Chicago Center
01:57PM 42.1981 -87.5925 318° Northwest 235 270 3,000  Level Chicago Center
01:59PM 42.2361 -87.6575 308° West 228 262 3,000  Level Chicago Center
02:00PM 42.2428 -87.7378 276° West 228 262 3,000  Level Chicago Center
02:01PM 42.2292 -87.8156 257° West 222 255 3,000  Level Chicago Center
02:02PM 42.2133 -87.9031 256° West 217 250 3,000  Level Chicago Center
02:04PM 42.1280 -87.9093 166° South  Level FlightAware Approximate
02:11PM 42.1143 -87.9015 166° South  Level Estimated
02:12PM 42.1143 -87.9015 166° South  Level Estimated